Time;durP1;ratioP1;P1;durP2;ratioP2;P2;SDS_P1;SDS_P2;PMS_P1;PMS_P2;Temp;Humidity;BMP_temperature;BMP_pressure;BME280_temperature;BME280_humidity;BME280_pressure;Samples;Min_cycle;Max_cycle;Signal;HPM_P1;HPM_P2
2022/03/26 00:02:11;;;;;;;37.77;15.80;;;2.80;28.00;;;;;;5065420;28;46335;-62
2022/03/26 00:04:37;;;;;;;33.73;16.17;;;2.80;28.20;;;;;;5065041;28;46257;-63
2022/03/26 00:07:03;;;;;;;34.13;15.40;;;2.80;29.30;;;;;;5066828;27;46321;-62
2022/03/26 00:09:29;;;;;;;40.80;16.80;;;2.70;28.40;;;;;;5066716;28;46440;-63
2022/03/26 00:11:54;;;;;;;34.43;15.57;;;2.70;28.30;;;;;;5063574;28;46260;-63
2022/03/26 00:14:20;;;;;;;38.20;17.27;;;2.70;28.40;;;;;;5062910;28;47021;-64
2022/03/26 00:16:45;;;;;;;39.40;14.83;;;2.70;28.40;;;;;;5068506;28;46407;-64
2022/03/26 00:19:12;;;;;;;41.43;15.83;;;2.60;28.40;;;;;;5077236;28;46471;-62
2022/03/26 00:21:37;;;;;;;38.23;13.20;;;2.60;28.50;;;;;;5070862;28;46400;-64
2022/03/26 00:24:03;;;;;;;30.17;15.70;;;2.50;28.70;;;;;;5064347;28;46354;-64
2022/03/26 00:26:29;;;;;;;30.20;14.33;;;2.40;28.70;;;;;;5062965;28;46387;-64
2022/03/26 00:28:54;;;;;;;33.37;14.50;;;2.40;28.80;;;;;;5064963;28;46456;-63
2022/03/26 00:31:20;;;;;;;30.17;16.43;;;2.30;28.90;;;;;;5065876;28;46442;-64
2022/03/26 00:33:45;;;;;;;35.90;16.77;;;2.30;28.90;;;;;;5062884;28;46639;-63
2022/03/26 00:36:11;;;;;;;38.07;16.23;;;2.30;28.90;;;;;;5062680;28;46488;-62
2022/03/26 00:38:36;;;;;;;34.97;16.90;;;2.30;28.90;;;;;;5063701;28;46282;-64
2022/03/26 00:41:02;;;;;;;35.43;16.63;;;2.30;29.00;;;;;;5068637;28;46391;-63
2022/03/26 00:43:28;;;;;;;32.13;15.93;;;2.30;29.00;;;;;;5072317;28;47008;-65
2022/03/26 00:45:54;;;;;;;38.23;16.67;;;2.30;29.10;;;;;;5066300;28;46297;-63
2022/03/26 00:48:19;;;;;;;33.22;15.68;;;2.30;29.10;;;;;;5065001;28;46350;-62
2022/03/26 00:50:45;;;;;;;36.80;17.13;;;2.30;29.20;;;;;;5073139;28;46398;-63
2022/03/26 00:53:11;;;;;;;34.57;17.33;;;2.30;29.20;;;;;;5062912;28;46420;-62
2022/03/26 00:55:36;;;;;;;35.53;15.93;;;2.30;29.30;;;;;;5062731;28;46636;-64
2022/03/26 00:58:02;;;;;;;35.40;16.17;;;2.30;29.50;;;;;;5066572;28;46474;-62
2022/03/26 01:00:28;;;;;;;34.20;14.97;;;2.20;29.60;;;;;;5067415;28;46523;-63
2022/03/26 01:02:54;;;;;;;33.33;16.27;;;2.10;29.60;;;;;;5066101;28;48137;-64
2022/03/26 01:05:19;;;;;;;30.80;15.37;;;2.10;29.70;;;;;;5062185;28;46274;-62
2022/03/26 01:07:46;;;;;;;32.23;16.30;;;2.00;29.70;;;;;;5066857;28;46378;-62
2022/03/26 01:10:12;;;;;;;35.15;15.43;;;2.00;29.90;;;;;;5065837;28;46486;-61
2022/03/26 01:12:38;;;;;;;33.22;16.27;;;1.90;29.90;;;;;;5063384;28;46199;-64
2022/03/26 01:15:05;;;;;;;38.60;16.47;;;1.80;29.90;;;;;;5061720;28;45870;-64
2022/03/26 01:17:31;;;;;;;32.72;15.82;;;1.80;30.00;;;;;;5065102;28;46667;-63
2022/03/26 01:19:59;;;;;;;32.50;16.10;;;1.80;30.00;;;;;;5062123;27;45945;-63
2022/03/26 01:22:25;;;;;;;27.02;14.18;;;1.80;30.00;;;;;;5065425;28;46645;-63
2022/03/26 01:24:51;;;;;;;33.22;15.80;;;1.80;30.00;;;;;;5062938;28;46525;-64
2022/03/26 01:27:17;;;;;;;29.83;15.30;;;1.80;30.00;;;;;;5061870;28;46501;-63
2022/03/26 01:29:42;;;;;;;32.87;17.13;;;1.80;30.10;;;;;;5065681;28;46404;-63
2022/03/26 01:32:09;;;;;;;33.67;15.57;;;1.80;30.00;;;;;;5061974;28;46337;-64
2022/03/26 01:34:36;;;;;;;34.00;16.10;;;1.80;30.10;;;;;;5061596;28;46328;-64
2022/03/26 01:37:02;;;;;;;39.33;15.77;;;1.80;30.20;;;;;;5067528;28;46343;-64
2022/03/26 01:39:29;;;;;;;29.45;14.32;;;1.70;30.30;;;;;;5064829;28;46410;-64
2022/03/26 01:41:59;;;;;;;39.33;16.67;;;1.60;30.50;;;;;;5066535;28;46444;-63
2022/03/26 01:44:25;;;;;;;30.73;15.20;;;1.70;30.60;;;;;;5064865;28;45789;-63
2022/03/26 01:46:55;;;;;;;30.80;15.17;;;1.60;30.60;;;;;;5063064;28;46435;-63
2022/03/26 01:49:23;;;;;;;33.30;17.27;;;1.60;30.60;;;;;;5061525;28;46362;-63
2022/03/26 01:51:49;;;;;;;34.55;16.20;;;1.80;30.80;;;;;;5062687;28;47323;-64
2022/03/26 01:54:16;;;;;;;30.00;16.10;;;1.60;30.60;;;;;;5063648;28;46406;-64
2022/03/26 01:56:42;;;;;;;27.88;15.65;;;1.60;30.70;;;;;;5062958;28;46645;-63
2022/03/26 01:59:09;;;;;;;31.15;15.70;;;1.50;30.90;;;;;;5060348;28;46510;-64
2022/03/26 02:01:35;;;;;;;34.30;15.68;;;1.40;30.90;;;;;;5061393;28;46443;-63
2022/03/26 02:04:01;;;;;;;35.15;15.10;;;1.40;31.10;;;;;;5070885;28;46364;-64
2022/03/26 02:06:34;;;;;;;34.83;15.57;;;1.30;31.10;;;;;;5065225;28;46442;-63
2022/03/26 02:09:02;;;;;;;33.90;15.15;;;1.30;31.30;;;;;;5060622;28;46361;-63
2022/03/26 02:11:35;;;;;;;30.27;15.15;;;1.30;31.40;;;;;;5062323;28;46350;-64
2022/03/26 02:14:02;;;;;;;33.03;15.45;;;1.20;31.40;;;;;;5066526;28;46271;-62
2022/03/26 02:16:30;;;;;;;31.55;15.88;;;1.30;31.50;;;;;;5060542;28;46496;-62
2022/03/26 02:18:56;;;;;;;34.70;16.75;;;1.20;31.80;;;;;;5062548;28;46431;-62
2022/03/26 02:21:22;;;;;;;35.97;17.10;;;1.20;31.70;;;;;;5063374;28;47253;-63
2022/03/26 02:23:49;;;;;;;36.60;16.50;;;1.30;31.80;;;;;;5061441;28;46689;-62
2022/03/26 02:26:19;;;;;;;33.63;16.40;;;1.20;31.80;;;;;;5060652;28;46457;-63
2022/03/26 02:28:46;;;;;;;32.88;15.88;;;1.10;31.80;;;;;;5059559;28;46658;-62
2022/03/26 02:31:12;;;;;;;36.45;17.25;;;1.10;31.70;;;;;;5060939;28;46351;-63
2022/03/26 02:33:39;;;;;;;34.33;15.73;;;1.10;31.70;;;;;;5043092;28;46540;-62
2022/03/26 02:36:06;;;;;;;37.95;16.45;;;1.00;31.70;;;;;;5060051;28;46453;-62
2022/03/26 02:38:32;;;;;;;36.70;18.38;;;1.10;31.80;;;;;;5057668;28;46649;-62
2022/03/26 02:40:57;;;;;;;46.57;17.93;;;1.00;31.70;;;;;;5069005;28;46315;-64
2022/03/26 02:43:23;;;;;;;31.67;14.87;;;1.00;31.60;;;;;;5066030;28;46386;-62
2022/03/26 02:45:48;;;;;;;34.33;15.53;;;1.00;31.70;;;;;;5060519;28;46397;-62
2022/03/26 02:48:14;;;;;;;35.23;15.13;;;0.90;31.60;;;;;;5058264;28;46411;-63
2022/03/26 02:50:41;;;;;;;43.80;17.10;;;0.90;31.60;;;;;;5059535;28;47012;-63
2022/03/26 02:53:07;;;;;;;35.03;16.60;;;0.90;31.60;;;;;;5062993;28;46501;-62
2022/03/26 02:55:34;;;;;;;32.30;16.27;;;0.90;32.00;;;;;;5063929;28;46464;-64
2022/03/26 02:58:00;;;;;;;44.17;17.13;;;0.80;32.00;;;;;;5063737;28;46560;-63
2022/03/26 03:00:25;;;;;;;29.85;15.52;;;0.80;32.10;;;;;;5063421;28;46346;-62
2022/03/26 03:02:51;;;;;;;39.87;16.50;;;0.80;33.30;;;;;;5063918;28;46270;-63
2022/03/26 03:05:17;;;;;;;36.33;16.33;;;0.80;32.20;;;;;;5060155;28;46307;-62
2022/03/26 03:07:42;;;;;;;38.80;15.53;;;0.70;32.30;;;;;;5066344;28;46269;-64
2022/03/26 03:10:08;;;;;;;32.60;16.87;;;0.70;32.30;;;;;;5059771;28;46385;-62
2022/03/26 03:12:34;;;;;;;30.47;15.23;;;0.60;32.40;;;;;;5060841;28;46310;-62
2022/03/26 03:14:59;;;;;;;31.10;15.60;;;0.60;32.50;;;;;;5059981;28;46321;-64
2022/03/26 03:17:25;;;;;;;31.70;15.67;;;0.50;32.50;;;;;;5058271;28;46338;-65
2022/03/26 03:19:50;;;;;;;31.47;16.57;;;0.50;32.80;;;;;;5059888;28;46456;-63
2022/03/26 03:22:16;;;;;;;32.67;15.53;;;0.50;32.70;;;;;;5066015;28;46358;-63
2022/03/26 03:24:42;;;;;;;34.67;16.07;;;0.50;32.70;;;;;;5061975;28;45934;-62
2022/03/26 03:27:08;;;;;;;31.80;15.80;;;0.50;32.80;;;;;;5060035;28;46484;-62
2022/03/26 03:29:34;;;;;;;32.23;15.00;;;0.50;32.70;;;;;;5058954;28;46366;-64
2022/03/26 03:32:00;;;;;;;34.40;16.03;;;0.50;32.80;;;;;;5059407;28;46461;-63
2022/03/26 03:34:25;;;;;;;36.40;15.90;;;0.60;32.90;;;;;;5061710;28;46448;-64
2022/03/26 03:36:51;;;;;;;44.07;18.40;;;0.50;32.80;;;;;;5059543;28;46581;-64
2022/03/26 03:39:17;;;;;;;35.33;16.60;;;0.50;32.80;;;;;;5058861;28;46377;-63
2022/03/26 03:41:42;;;;;;;30.77;15.53;;;0.50;32.80;;;;;;5059929;28;46492;-63
2022/03/26 03:44:10;;;;;;;42.83;20.60;;;0.60;32.90;;;;;;5062826;28;45759;-63
2022/03/26 03:46:35;;;;;;;39.90;19.30;;;0.60;32.80;;;;;;5054302;28;46671;-63
2022/03/26 03:49:02;;;;;;;40.50;18.97;;;0.60;32.90;;;;;;5062857;28;47093;-63
2022/03/26 03:51:28;;;;;;;39.78;18.35;;;0.60;33.00;;;;;;5063871;28;45863;-63
2022/03/26 03:53:54;;;;;;;41.03;18.83;;;0.60;33.10;;;;;;5063869;28;46408;-63
2022/03/26 03:56:19;;;;;;;37.08;17.17;;;0.60;33.30;;;;;;5063387;28;46763;-63
2022/03/26 03:58:45;;;;;;;31.47;16.77;;;0.60;33.20;;;;;;5057120;28;46472;-65
2022/03/26 04:01:10;;;;;;;40.00;18.47;;;0.60;33.30;;;;;;5067286;28;46347;-63
2022/03/26 04:03:36;;;;;;;39.00;17.90;;;0.60;33.40;;;;;;5067540;28;46258;-63
2022/03/26 04:06:03;;;;;;;34.30;17.03;;;0.60;33.50;;;;;;5065807;28;46659;-63
2022/03/26 04:08:29;;;;;;;37.03;16.45;;;0.50;33.60;;;;;;5063000;28;46392;-64
2022/03/26 04:10:54;;;;;;;46.93;17.50;;;0.50;33.60;;;;;;5063578;28;46374;-64
2022/03/26 04:13:20;;;;;;;35.27;16.43;;;0.40;33.70;;;;;;5063858;28;46537;-64
2022/03/26 04:15:46;;;;;;;37.30;16.70;;;0.40;33.80;;;;;;5061226;28;46415;-64
2022/03/26 04:18:11;;;;;;;33.67;17.40;;;0.40;33.80;;;;;;5064963;28;46473;-64
2022/03/26 04:20:37;;;;;;;34.47;18.03;;;0.40;35.00;;;;;;5065446;28;46359;-63
2022/03/26 04:23:03;;;;;;;39.83;16.23;;;0.30;34.10;;;;;;5066438;28;46528;-63
2022/03/26 04:25:31;;;;;;;34.43;17.33;;;0.20;34.10;;;;;;5067224;28;46423;-64
2022/03/26 04:27:57;;;;;;;35.00;15.55;;;0.10;34.20;;;;;;5068962;28;46299;-63
2022/03/26 04:30:22;;;;;;;36.40;17.13;;;0.00;34.30;;;;;;5063976;28;46372;-63
2022/03/26 04:32:48;;;;;;;33.43;16.80;;;0.10;34.50;;;;;;5063553;28;46431;-63
2022/03/26 04:35:13;;;;;;;34.23;18.23;;;-0.10;34.50;;;;;;5066220;28;46629;-63
2022/03/26 04:37:41;;;;;;;38.53;17.60;;;-0.10;34.60;;;;;;5063914;28;46368;-63
2022/03/26 04:40:11;;;;;;;41.38;18.35;;;-0.20;34.60;;;;;;5062669;28;46407;-63
2022/03/26 04:42:38;;;;;;;33.75;16.63;;;-0.20;34.70;;;;;;5065511;28;46393;-63
2022/03/26 04:45:05;;;;;;;35.95;16.02;;;-0.10;34.50;;;;;;5066432;28;46553;-64
2022/03/26 04:47:30;;;;;;;38.53;17.02;;;-0.10;34.60;;;;;;5063489;28;47216;-63
2022/03/26 04:49:56;;;;;;;42.27;18.33;;;0.00;34.50;;;;;;5063263;28;45795;-63
2022/03/26 04:52:21;;;;;;;38.90;16.50;;;0.00;35.70;;;;;;5065528;28;46388;-64
2022/03/26 04:54:48;;;;;;;34.13;17.47;;;0.00;34.50;;;;;;5063470;28;46408;-64
2022/03/26 04:57:15;;;;;;;44.30;18.25;;;0.00;34.60;;;;;;5062130;28;47243;-64
2022/03/26 04:59:41;;;;;;;37.65;16.45;;;0.00;34.70;;;;;;5061823;28;46413;-64
2022/03/26 05:02:06;;;;;;;44.00;17.77;;;0.00;34.80;;;;;;5067210;28;46277;-63
2022/03/26 05:04:32;;;;;;;41.23;19.23;;;0.00;34.90;;;;;;5063641;28;46291;-64
2022/03/26 05:06:58;;;;;;;37.33;16.83;;;0.00;35.00;;;;;;5064775;28;46411;-62
2022/03/26 05:09:24;;;;;;;35.63;16.70;;;0.00;35.00;;;;;;5061918;28;46354;-65
2022/03/26 05:11:49;;;;;;;35.87;17.60;;;0.10;35.00;;;;;;5051322;28;46402;-64
2022/03/26 05:14:16;;;;;;;36.10;18.67;;;0.10;35.00;;;;;;5067502;28;46569;-62
2022/03/26 05:16:42;;;;;;;37.95;18.25;;;0.10;35.00;;;;;;5061611;28;47262;-63
2022/03/26 05:19:08;;;;;;;39.90;19.25;;;0.20;35.00;;;;;;5061315;28;46296;-65
2022/03/26 05:21:34;;;;;;;36.63;17.70;;;0.20;34.90;;;;;;5069242;28;45863;-63
2022/03/26 05:23:59;;;;;;;44.67;19.03;;;0.30;34.90;;;;;;5068549;28;46275;-64
2022/03/26 05:26:25;;;;;;;34.73;17.70;;;0.40;35.00;;;;;;5068975;28;47104;-65
2022/03/26 05:28:51;;;;;;;39.90;17.93;;;0.40;34.90;;;;;;5068343;28;46386;-63
2022/03/26 05:31:17;;;;;;;35.03;18.42;;;0.50;34.90;;;;;;5061414;28;46451;-63
2022/03/26 05:33:42;;;;;;;37.93;17.80;;;0.50;34.90;;;;;;5061748;28;46277;-62
2022/03/26 05:36:08;;;;;;;34.77;17.47;;;0.60;35.00;;;;;;5061760;28;46598;-63
2022/03/26 05:38:33;;;;;;;36.90;17.13;;;0.70;35.10;;;;;;5063998;28;46469;-63
2022/03/26 05:40:59;;;;;;;32.03;17.27;;;0.90;35.40;;;;;;5062060;28;45918;-64
2022/03/26 05:43:25;;;;;;;35.80;17.47;;;1.10;35.50;;;;;;5064400;28;46318;-62
2022/03/26 05:45:51;;;;;;;31.60;15.60;;;1.40;35.70;;;;;;5064801;28;46414;-63
2022/03/26 05:48:17;;;;;;;33.65;16.75;;;1.60;35.60;;;;;;5060896;28;46443;-64
2022/03/26 05:50:44;;;;;;;30.80;16.10;;;1.90;35.50;;;;;;5062365;28;46561;-64
2022/03/26 05:53:11;;;;;;;30.85;16.65;;;2.20;35.40;;;;;;5065959;28;46620;-63
2022/03/26 05:55:36;;;;;;;39.40;16.58;;;2.20;35.00;;;;;;5059966;28;47038;-64
2022/03/26 05:58:03;;;;;;;46.27;16.87;;;2.40;34.50;;;;;;5063238;28;46397;-64
2022/03/26 06:00:28;;;;;;;35.38;16.35;;;2.50;33.90;;;;;;5060941;28;46302;-63
2022/03/26 06:02:54;;;;;;;41.23;18.63;;;2.40;33.50;;;;;;5060664;28;45884;-62
2022/03/26 06:05:19;;;;;;;35.13;17.57;;;2.40;33.50;;;;;;5058987;28;46455;-63
2022/03/26 06:07:45;;;;;;;33.40;16.53;;;2.40;33.70;;;;;;5061747;28;46420;-64
2022/03/26 06:10:11;;;;;;;33.73;16.00;;;2.40;34.00;;;;;;5061718;28;46475;-62
2022/03/26 06:12:36;;;;;;;39.10;17.40;;;2.50;34.50;;;;;;5059841;28;46441;-63
2022/03/26 06:15:03;;;;;;;34.47;17.70;;;2.80;34.00;;;;;;5059156;28;46083;-63
2022/03/26 06:17:28;;;;;;;36.10;17.73;;;3.10;33.50;;;;;;5063158;28;46038;-65
2022/03/26 06:19:54;;;;;;;38.77;18.90;;;3.10;33.40;;;;;;5058911;28;46401;-65
2022/03/26 06:22:20;;;;;;;52.90;21.20;;;3.10;33.40;;;;;;5061208;28;46598;-64
2022/03/26 06:24:45;;;;;;;39.37;20.37;;;3.30;33.60;;;;;;5061769;28;46473;-63
2022/03/26 06:27:11;;;;;;;51.13;19.77;;;3.60;33.90;;;;;;5059951;28;46366;-64
2022/03/26 06:29:36;;;;;;;42.63;20.27;;;3.70;33.30;;;;;;5062397;28;46468;-64
2022/03/26 06:32:03;;;;;;;44.60;20.43;;;3.80;33.20;;;;;;5061687;28;46444;-62
2022/03/26 06:34:29;;;;;;;40.00;19.80;;;4.00;33.20;;;;;;5058569;28;47122;-63
2022/03/26 06:36:55;;;;;;;42.57;21.37;;;4.30;33.10;;;;;;5059819;28;46682;-63
2022/03/26 06:39:20;;;;;;;41.95;19.70;;;4.50;33.00;;;;;;5060121;28;46533;-62
2022/03/26 06:41:46;;;;;;;46.47;20.40;;;4.60;32.80;;;;;;5061219;28;46535;-63
2022/03/26 06:44:12;;;;;;;65.10;26.17;;;4.80;33.00;;;;;;5059698;28;47367;-62
2022/03/26 06:46:39;;;;;;;44.65;23.58;;;4.90;32.90;;;;;;5059579;28;46555;-65
2022/03/26 06:49:07;;;;;;;45.42;23.58;;;5.10;33.10;;;;;;5045388;28;46490;-66
2022/03/26 06:51:33;;;;;;;47.10;23.80;;;5.30;33.00;;;;;;5061266;28;45879;-64
2022/03/26 06:53:59;;;;;;;51.37;24.70;;;5.50;33.00;;;;;;5060278;28;47177;-64
2022/03/26 06:56:25;;;;;;;46.13;23.73;;;5.80;34.30;;;;;;5059894;28;46316;-65
2022/03/26 06:58:51;;;;;;;47.43;22.87;;;5.90;32.90;;;;;;5058396;28;46310;-63
2022/03/26 07:01:17;;;;;;;55.03;23.77;;;6.20;32.80;;;;;;5063079;28;46588;-63
2022/03/26 07:03:42;;;;;;;45.17;21.10;;;6.40;32.70;;;;;;5062519;28;46452;-63
2022/03/26 07:06:08;;;;;;;45.07;22.90;;;6.60;32.90;;;;;;5060214;28;46424;-62
2022/03/26 07:08:33;;;;;;;49.80;22.67;;;6.60;32.90;;;;;;5060636;28;45869;-64
2022/03/26 07:10:59;;;;;;;44.07;22.47;;;6.80;32.80;;;;;;5063583;28;46604;-64
2022/03/26 07:13:25;;;;;;;50.80;22.70;;;7.10;32.70;;;;;;5070356;28;47141;-64
2022/03/26 07:15:50;;;;;;;54.47;21.43;;;7.20;32.70;;;;;;5063574;28;46449;-64
2022/03/26 07:18:16;;;;;;;46.43;22.40;;;7.30;32.70;;;;;;5052655;28;46382;-65
2022/03/26 07:20:42;;;;;;;47.57;22.47;;;7.40;32.60;;;;;;5064007;28;46389;-66
2022/03/26 07:23:08;;;;;;;49.40;21.60;;;7.40;32.60;;;;;;5064235;28;46450;-64
2022/03/26 07:25:34;;;;;;;47.43;23.03;;;7.70;32.50;;;;;;5063780;28;46496;-64
2022/03/26 07:28:00;;;;;;;47.40;22.33;;;7.90;32.30;;;;;;5062636;28;46427;-64
2022/03/26 07:30:26;;;;;;;50.57;22.73;;;8.20;31.90;;;;;;5068642;28;46419;-64
2022/03/26 07:32:52;;;;;;;53.40;22.73;;;8.50;31.60;;;;;;5065896;28;47557;-64
2022/03/26 07:35:17;;;;;;;46.97;23.10;;;8.60;32.00;;;;;;5068940;28;45751;-64
2022/03/26 07:37:43;;;;;;;45.70;22.10;;;8.60;31.30;;;;;;5071741;28;46475;-64
2022/03/26 07:40:10;;;;;;;58.73;24.73;;;8.80;31.20;;;;;;5066640;28;46762;-65
2022/03/26 07:42:36;;;;;;;46.80;23.10;;;8.90;31.00;;;;;;5065972;28;46033;-64
2022/03/26 07:45:03;;;;;;;59.60;23.33;;;9.10;30.60;;;;;;5067588;28;46224;-66
2022/03/26 07:47:29;;;;;;;54.47;23.07;;;9.20;30.10;;;;;;5067076;28;46256;-64
2022/03/26 07:49:55;;;;;;;51.27;23.13;;;9.40;30.00;;;;;;5063819;28;46334;-65
2022/03/26 07:52:21;;;;;;;43.83;22.07;;;9.60;29.90;;;;;;5063888;28;47262;-65
2022/03/26 07:54:46;;;;;;;55.80;23.63;;;9.70;29.70;;;;;;5065089;28;46470;-67
2022/03/26 07:57:12;;;;;;;57.93;24.50;;;9.70;29.50;;;;;;5063975;28;45819;-64
2022/03/26 07:59:38;;;;;;;47.93;23.03;;;9.80;29.40;;;;;;5063871;28;46501;-64
2022/03/26 08:02:04;;;;;;;49.27;25.13;;;10.00;28.60;;;;;;5063477;28;46669;-65
2022/03/26 08:04:30;;;;;;;56.80;24.27;;;10.10;28.10;;;;;;5062440;28;46456;-65
2022/03/26 08:06:55;;;;;;;49.90;23.63;;;10.20;28.20;;;;;;5066861;28;46563;-65
2022/03/26 08:09:21;;;;;;;51.73;25.20;;;10.40;28.00;;;;;;5064025;28;46414;-65
2022/03/26 08:11:46;;;;;;;50.50;24.80;;;10.50;27.80;;;;;;5062850;28;46726;-64
2022/03/26 08:14:12;;;;;;;67.90;23.73;;;10.50;27.60;;;;;;5064026;28;46134;-65
2022/03/26 08:16:39;;;;;;;59.70;26.70;;;10.60;26.70;;;;;;5064297;28;46461;-65
2022/03/26 08:19:04;;;;;;;54.33;24.50;;;10.80;26.70;;;;;;5063017;28;45935;-65
2022/03/26 08:21:32;;;;;;;50.07;24.97;;;10.80;26.70;;;;;;5060482;28;47079;-64
2022/03/26 08:23:58;;;;;;;49.57;26.00;;;10.80;26.70;;;;;;5063451;28;46538;-65
2022/03/26 08:26:23;;;;;;;51.97;25.03;;;10.80;26.70;;;;;;5062958;28;46412;-64
2022/03/26 08:28:50;;;;;;;51.30;25.60;;;10.70;26.50;;;;;;5063854;28;46398;-64
2022/03/26 08:31:17;;;;;;;54.87;25.50;;;10.90;26.00;;;;;;5060563;28;47162;-64
2022/03/26 08:33:43;;;;;;;47.63;24.37;;;11.10;26.10;;;;;;5062078;28;46532;-65
2022/03/26 08:36:10;;;;;;;56.87;25.90;;;11.10;25.80;;;;;;5050113;28;46405;-65
2022/03/26 08:38:36;;;;;;;47.83;24.90;;;11.20;25.40;;;;;;5059457;28;46497;-65
2022/03/26 08:41:03;;;;;;;54.43;25.50;;;11.20;25.00;;;;;;5064248;28;46399;-64
2022/03/26 08:43:29;;;;;;;46.20;23.10;;;11.30;24.90;;;;;;5062579;28;46424;-65
2022/03/26 08:45:54;;;;;;;54.63;24.40;;;11.40;25.10;;;;;;5063661;28;46422;-64
2022/03/26 08:48:20;;;;;;;52.00;23.10;;;11.50;25.00;;;;;;5061205;28;46484;-65
2022/03/26 08:50:46;;;;;;;65.60;25.80;;;11.60;25.00;;;;;;5063345;28;46491;-64
2022/03/26 08:53:11;;;;;;;58.37;24.83;;;11.80;24.90;;;;;;5062516;28;46364;-64
2022/03/26 08:55:37;;;;;;;49.10;24.57;;;11.80;24.70;;;;;;5061296;28;46345;-65
2022/03/26 08:58:03;;;;;;;46.70;23.83;;;11.80;24.80;;;;;;5061495;28;46655;-63
2022/03/26 09:00:29;;;;;;;48.27;23.83;;;11.90;24.70;;;;;;5057439;28;47365;-67
2022/03/26 09:02:55;;;;;;;53.83;24.07;;;12.10;24.30;;;;;;5062204;28;46401;-67
2022/03/26 09:05:22;;;;;;;52.10;24.83;;;12.20;24.30;;;;;;5057421;28;45908;-65
2022/03/26 09:07:48;;;;;;;51.37;25.00;;;12.30;24.40;;;;;;5063866;28;46562;-65
2022/03/26 09:10:14;;;;;;;53.50;25.43;;;12.50;24.50;;;;;;5066317;28;48251;-62
2022/03/26 09:12:40;;;;;;;53.97;24.83;;;12.60;24.30;;;;;;5061147;28;46451;-64
2022/03/26 09:15:07;;;;;;;49.40;25.43;;;12.50;23.90;;;;;;5061762;28;46382;-66
2022/03/26 09:17:34;;;;;;;49.20;25.10;;;12.50;23.80;;;;;;5061426;28;46345;-62
2022/03/26 09:20:00;;;;;;;49.10;23.27;;;12.50;23.80;;;;;;5061915;28;46394;-63
2022/03/26 09:22:26;;;;;;;46.77;24.30;;;12.80;23.70;;;;;;5063184;28;46376;-62
2022/03/26 09:24:52;;;;;;;55.07;26.43;;;12.80;23.70;;;;;;5060636;28;46512;-62
2022/03/26 09:27:18;;;;;;;53.13;23.90;;;12.90;23.30;;;;;;5048549;28;46431;-62
2022/03/26 09:29:45;;;;;;;53.67;24.63;;;12.90;23.20;;;;;;5049075;28;47958;-62
2022/03/26 09:32:11;;;;;;;52.37;26.17;;;13.00;23.10;;;;;;5053490;28;46692;-62
2022/03/26 09:34:39;;;;;;;49.10;25.87;;;12.90;23.10;;;;;;5066253;28;46389;-63
2022/03/26 09:37:05;;;;;;;54.43;25.80;;;13.00;23.10;;;;;;5055276;28;46509;-63
2022/03/26 09:39:31;;;;;;;56.97;25.87;;;13.00;23.10;;;;;;5062635;28;46398;-63
2022/03/26 09:41:58;;;;;;;49.87;25.20;;;13.20;23.10;;;;;;5030170;28;46344;-63
2022/03/26 09:44:25;;;;;;;51.83;24.53;;;13.30;22.70;;;;;;5049490;28;46353;-63
2022/03/26 09:46:52;;;;;;;53.13;25.40;;;13.40;22.40;;;;;;5050188;28;46536;-63
2022/03/26 09:49:18;;;;;;;54.80;25.27;;;13.50;22.30;;;;;;5047611;28;47714;-63
2022/03/26 09:51:43;;;;;;;59.57;24.60;;;13.50;22.10;;;;;;5060062;28;46490;-64
2022/03/26 09:54:12;;;;;;;57.60;25.23;;;13.50;22.00;;;;;;5060518;28;46404;-64
2022/03/26 09:56:39;;;;;;;54.90;25.70;;;13.60;21.70;;;;;;5062619;28;46370;-63
2022/03/26 09:59:05;;;;;;;62.20;26.17;;;13.70;21.40;;;;;;5059641;28;47998;-63
2022/03/26 10:01:30;;;;;;;48.80;24.67;;;13.80;21.50;;;;;;5060903;28;46554;-63
2022/03/26 10:04:08;;;;;;;53.53;26.73;;;13.90;21.20;;;;;;5061448;28;46378;-63
2022/03/26 10:06:34;;;;;;;54.17;26.97;;;13.90;20.90;;;;;;5070985;28;46634;-63
2022/03/26 10:09:00;;;;;;;54.53;27.60;;;14.00;20.80;;;;;;5067857;28;46177;-63
2022/03/26 10:11:32;;;;;;;51.30;25.90;;;13.90;20.70;;;;;;5061417;28;46380;-63
2022/03/26 10:13:58;;;;;;;50.70;26.50;;;14.20;20.80;;;;;;5057802;28;46378;-63
2022/03/26 10:16:24;;;;;;;56.57;25.60;;;14.20;20.00;;;;;;5060141;28;46528;-63
2022/03/26 10:18:50;;;;;;;55.33;26.87;;;14.20;19.90;;;;;;5062575;28;46407;-63
2022/03/26 10:21:21;;;;;;;60.77;26.63;;;14.30;19.80;;;;;;5065476;28;46527;-63
2022/03/26 10:23:49;;;;;;;52.33;26.07;;;14.30;19.60;;;;;;5061385;28;46084;-63
2022/03/26 10:26:23;;;;;;;48.00;27.97;;;14.40;19.30;;;;;;5064718;28;46238;-63
2022/03/26 10:28:56;;;;;;;62.00;27.80;;;14.50;19.20;;;;;;5070501;28;46597;-63
2022/03/26 10:34:19;;;;;;;50.83;26.60;;;14.80;18.80;;;;;;5062618;28;46378;-63
2022/03/26 10:36:54;;;;;;;58.50;26.83;;;14.90;18.80;;;;;;5057838;28;46591;-63
2022/03/26 10:39:22;;;;;;;48.40;26.60;;;15.00;19.80;;;;;;5057326;28;46615;-64
2022/03/26 10:41:50;;;;;;;55.00;25.57;;;14.90;18.60;;;;;;5059331;28;46428;-62
2022/03/26 10:44:17;;;;;;;51.37;26.07;;;15.00;18.70;;;;;;5058725;28;46496;-63
2022/03/26 10:46:50;;;;;;;46.13;25.00;;;15.00;18.30;;;;;;5059706;28;46006;-63
2022/03/26 10:49:37;;;;;;;49.67;25.20;;;15.20;18.40;;;;;;5057428;28;47105;-63
2022/03/26 10:52:10;;;;;;;49.50;25.77;;;15.30;17.90;;;;;;5059708;28;46325;-64
2022/03/26 10:54:35;;;;;;;48.77;25.87;;;15.40;17.80;;;;;;5062562;28;47188;-63
2022/03/26 10:57:02;;;;;;;49.50;26.73;;;15.50;17.50;;;;;;5063055;28;46516;-64
2022/03/26 10:59:29;;;;;;;54.43;25.93;;;15.60;17.20;;;;;;5062487;28;46677;-63
2022/03/26 11:01:55;;;;;;;51.37;27.47;;;15.70;17.40;;;;;;5072736;28;46498;-63
2022/03/26 11:04:21;;;;;;;61.00;27.90;;;15.80;18.40;;;;;;5063846;28;46397;-63
2022/03/26 11:06:48;;;;;;;55.33;27.53;;;15.80;17.00;;;;;;5059452;28;46583;-63
2022/03/26 11:09:17;;;;;;;55.30;26.47;;;15.90;16.90;;;;;;5062058;28;46499;-64
2022/03/26 11:11:45;;;;;;;50.27;26.53;;;15.90;16.70;;;;;;5060673;28;46424;-65
2022/03/26 11:14:13;;;;;;;47.67;25.60;;;15.90;16.50;;;;;;5063082;28;46443;-63
2022/03/26 11:17:05;;;;;;;48.47;24.83;;;16.10;16.60;;;;;;5063571;28;46444;-63
2022/03/26 11:20:01;;;;;;;55.70;27.30;;;16.10;16.10;;;;;;5063116;28;46712;-63
2022/03/26 11:22:56;;;;;;;49.20;26.27;;;16.30;16.30;;;;;;5065017;28;46432;-63
2022/03/26 11:25:56;;;;;;;50.00;25.77;;;16.30;15.50;;;;;;5062021;28;46455;-63
2022/03/26 11:28:46;;;;;;;48.93;25.37;;;16.20;15.30;;;;;;5063849;28;46435;-63
2022/03/26 11:31:39;;;;;;;55.97;25.67;;;16.30;15.20;;;;;;5061237;28;46387;-63
2022/03/26 11:34:08;;;;;;;52.97;26.40;;;16.40;14.90;;;;;;5062460;28;46455;-63
2022/03/26 11:36:34;;;;;;;49.37;25.27;;;16.30;14.50;;;;;;5063852;28;46394;-63
2022/03/26 11:39:11;;;;;;;54.00;25.00;;;16.30;14.50;;;;;;5065231;28;46528;-63
2022/03/26 11:41:38;;;;;;;49.90;25.30;;;16.40;14.70;;;;;;5067675;28;46367;-63
2022/03/26 11:44:04;;;;;;;56.17;27.20;;;16.50;14.60;;;;;;5063680;28;46432;-63
2022/03/26 11:52:25;;;;;;;50.60;25.17;;;16.70;14.10;;;;;;5069956;28;46377;-63
2022/03/26 11:55:19;;;;;;;54.67;25.70;;;16.80;13.90;;;;;;5066487;28;46484;-63
2022/03/26 11:57:45;;;;;;;42.23;22.50;;;16.70;13.80;;;;;;5040905;28;46231;-63
2022/03/26 12:00:21;;;;;;;45.47;24.27;;;16.70;12.90;;;;;;5062276;28;46614;-63
2022/03/26 12:02:51;;;;;;;43.37;23.20;;;16.60;12.90;;;;;;5060491;28;46377;-63
2022/03/26 12:08:18;;;;;;;43.70;22.57;;;16.70;12.40;;;;;;5066214;28;46380;-63
2022/03/26 12:10:44;;;;;;;47.03;24.93;;;16.80;12.80;;;;;;5063796;28;46316;-64
2022/03/26 12:13:10;;;;;;;47.77;24.97;;;16.90;12.80;;;;;;5061829;28;47135;-63
2022/03/26 12:15:36;;;;;;;47.70;24.10;;;16.90;12.70;;;;;;5069050;28;45749;-64
2022/03/26 12:18:10;;;;;;;41.90;23.50;;;16.80;12.30;;;;;;5061775;28;46442;-63
2022/03/26 12:20:47;;;;;;;45.60;23.53;;;16.80;12.00;;;;;;5062097;28;46532;-62
2022/03/26 12:23:19;;;;;;;44.53;22.20;;;16.90;12.20;;;;;;5064806;28;46646;-63
2022/03/26 12:25:53;;;;;;;45.90;23.00;;;17.00;12.10;;;;;;5061024;28;46362;-63
2022/03/26 12:28:25;;;;;;;44.17;23.10;;;16.90;11.90;;;;;;5066487;28;46456;-62
2022/03/26 12:30:56;;;;;;;45.87;24.80;;;16.90;12.20;;;;;;5063320;28;46349;-62
2022/03/26 12:33:24;;;;;;;45.30;23.23;;;17.00;12.20;;;;;;5063035;28;46611;-63
2022/03/26 12:35:53;;;;;;;43.67;21.63;;;17.00;12.00;;;;;;5063557;28;46467;-63
2022/03/26 12:38:20;;;;;;;38.50;22.90;;;17.10;12.20;;;;;;5065757;28;46356;-63
2022/03/26 12:40:56;;;;;;;43.63;23.23;;;17.20;12.10;;;;;;5062702;28;45992;-63
2022/03/26 12:43:23;;;;;;;43.97;22.97;;;17.10;11.80;;;;;;5063143;28;47142;-63
2022/03/26 12:45:50;;;;;;;42.13;23.30;;;17.10;11.50;;;;;;5064011;28;46392;-63